createdAt,value
2022-09-13T00:01:25.269Z,17.80
2022-09-13T00:03:54.441Z,17.70
2022-09-13T00:06:23.353Z,17.70
2022-09-13T00:08:54.564Z,17.80
2022-09-13T00:11:25.402Z,17.60
2022-09-13T00:13:54.914Z,17.50
2022-09-13T00:16:25.682Z,17.40
2022-09-13T00:18:55.448Z,17.30
2022-09-13T00:21:24.978Z,17.30
2022-09-13T00:23:56.493Z,17.30
2022-09-13T00:26:26.705Z,17.20
2022-09-13T00:28:58.037Z,17.00
2022-09-13T00:31:28.993Z,16.80
2022-09-13T00:34:00.189Z,16.60
2022-09-13T00:36:29.282Z,16.60
2022-09-13T00:39:01.351Z,16.70
2022-09-13T00:41:30.245Z,16.60
2022-09-13T00:44:00.944Z,16.60
2022-09-13T00:46:36.562Z,16.50
2022-09-13T00:49:15.714Z,16.60
2022-09-13T00:51:48.801Z,16.70
2022-09-13T00:54:21.433Z,16.80
2022-09-13T00:56:54.211Z,16.80
2022-09-13T00:59:28.557Z,16.80
2022-09-13T01:01:58.968Z,16.70
2022-09-13T01:04:29.882Z,16.70
2022-09-13T01:07:03.824Z,16.70
2022-09-13T01:09:36.911Z,16.80
2022-09-13T01:12:10.688Z,16.90
2022-09-13T01:14:39.871Z,16.70
2022-09-13T01:17:09.775Z,16.40
2022-09-13T01:19:38.481Z,16.20
2022-09-13T01:26:12.319Z,16.10
2022-09-13T01:29:13.914Z,16.10
2022-09-13T01:31:52.994Z,16.10
2022-09-13T01:34:34.949Z,16.10
2022-09-13T01:37:27.355Z,16.20
2022-09-13T01:40:13.529Z,16.20
2022-09-13T01:43:05.584Z,16.30
2022-09-13T01:45:42.281Z,16.20
2022-09-13T01:48:20.574Z,16.20
2022-09-13T01:50:57.569Z,16.20
2022-09-13T01:53:36.181Z,16.30
2022-09-13T01:56:11.728Z,16.20
2022-09-13T01:58:46.109Z,16.00
2022-09-13T02:01:19.140Z,15.80
2022-09-13T02:03:55.891Z,15.50
2022-09-13T02:06:29.555Z,15.10
2022-09-13T02:09:01.577Z,14.80
2022-09-13T02:11:30.947Z,14.70
2022-09-13T02:14:03.628Z,14.70
2022-09-13T02:16:36.041Z,14.80
2022-09-13T02:19:09.798Z,14.80
2022-09-13T02:21:44.844Z,14.70
2022-09-13T02:24:17.934Z,14.70
2022-09-13T02:26:49.723Z,14.60
2022-09-13T02:29:22.495Z,14.50
2022-09-13T02:31:56.633Z,14.60
2022-09-13T02:34:31.637Z,14.70
2022-09-13T02:37:03.148Z,14.90
2022-09-13T02:39:33.677Z,14.90
2022-09-13T02:42:09.232Z,15.00
2022-09-13T02:44:43.396Z,15.00
2022-09-13T02:47:25.401Z,15.10
2022-09-13T02:50:04.237Z,15.10
2022-09-13T02:52:40.314Z,15.30
2022-09-13T02:55:18.921Z,15.30
2022-09-13T02:57:57.296Z,15.40
2022-09-13T03:00:25.734Z,15.60
2022-09-13T03:02:56.135Z,15.70
2022-09-13T03:05:25.953Z,15.80
2022-09-13T03:07:55.036Z,16.00
2022-09-13T03:10:24.327Z,16.10
2022-09-13T03:13:16.199Z,16.20
2022-09-13T03:15:55.723Z,16.30
2022-09-13T03:18:38.887Z,16.30
2022-09-13T03:21:18.915Z,16.40
2022-09-13T03:23:58.820Z,16.40
2022-09-13T03:26:47.900Z,16.50
2022-09-13T03:29:29.323Z,16.50
2022-09-13T03:32:08.351Z,16.60
2022-09-13T03:34:47.313Z,16.60
2022-09-13T03:37:25.249Z,16.60
2022-09-13T03:40:00.421Z,16.60
2022-09-13T03:42:36.180Z,16.60
2022-09-13T03:45:06.545Z,16.60
2022-09-13T03:47:36.868Z,16.60
2022-09-13T03:50:08.800Z,16.50
2022-09-13T03:52:41.273Z,16.30
2022-09-13T03:55:13.178Z,16.20
2022-09-13T03:57:41.947Z,15.90
2022-09-13T04:00:14.107Z,15.60
2022-09-13T04:02:43.275Z,15.30
2022-09-13T04:05:14.669Z,15.10
2022-09-13T04:07:45.259Z,14.60
2022-09-13T04:10:14.180Z,14.10
2022-09-13T04:12:43.752Z,13.50
2022-09-13T04:15:12.223Z,13.20
2022-09-13T04:17:41.447Z,12.80
2022-09-13T04:20:11.554Z,12.60
2022-09-13T04:22:40.386Z,12.50
2022-09-13T04:25:10.906Z,12.50
2022-09-13T04:27:39.278Z,12.50
2022-09-13T04:30:09.026Z,12.50
2022-09-13T04:32:37.582Z,12.60
2022-09-13T04:35:09.568Z,12.70
2022-09-13T04:37:38.484Z,12.90
2022-09-13T04:40:10.959Z,13.00
2022-09-13T04:42:39.809Z,13.10
2022-09-13T04:45:09.399Z,13.30
2022-09-13T04:47:38.168Z,13.30
2022-09-13T04:50:07.917Z,13.20
2022-09-13T04:52:36.587Z,13.20
2022-09-13T04:55:09.695Z,13.20
2022-09-13T04:57:39.785Z,13.30
2022-09-13T05:00:10.771Z,13.50
2022-09-13T05:02:39.178Z,13.60
2022-09-13T05:05:08.938Z,13.60
2022-09-13T05:07:37.953Z,13.60
2022-09-13T05:10:07.182Z,13.50
2022-09-13T05:12:36.078Z,13.40
2022-09-13T05:15:07.161Z,13.20
2022-09-13T05:17:36.057Z,13.20
2022-09-13T05:20:05.668Z,13.20
2022-09-13T05:22:34.336Z,13.10
2022-09-13T05:25:02.915Z,13.00
2022-09-13T05:27:31.460Z,13.10
2022-09-13T05:30:00.412Z,13.20
2022-09-13T05:32:31.897Z,13.40
2022-09-13T05:35:00.689Z,13.40
2022-09-13T05:37:29.183Z,13.50
2022-09-13T05:40:11.097Z,13.50
2022-09-13T05:42:40.685Z,13.50
2022-09-13T05:45:10.645Z,13.60
2022-09-13T05:47:40.488Z,13.60
2022-09-13T05:50:13.222Z,13.70
2022-09-13T05:52:53.406Z,13.70
2022-09-13T05:55:22.454Z,13.70
2022-09-13T05:57:51.233Z,13.70
2022-09-13T06:00:19.963Z,13.70
2022-09-13T06:02:49.859Z,13.60
2022-09-13T06:05:18.985Z,13.60
2022-09-13T06:07:48.265Z,13.60
2022-09-13T06:10:17.049Z,13.60
2022-09-13T06:12:45.529Z,13.70
2022-09-13T06:15:14.980Z,13.90
2022-09-13T06:17:43.456Z,14.10
2022-09-13T06:20:13.311Z,14.20
2022-09-13T06:22:42.159Z,14.40
2022-09-13T06:25:11.111Z,14.60
2022-09-13T06:27:39.835Z,14.80
2022-09-13T06:30:12.157Z,15.00
2022-09-13T06:32:41.303Z,15.00
2022-09-13T06:35:10.460Z,15.00
2022-09-13T06:37:40.556Z,15.00
2022-09-13T06:40:09.716Z,15.20
2022-09-13T06:42:39.010Z,15.30
2022-09-13T06:45:08.499Z,15.50
2022-09-13T06:47:37.205Z,15.70
2022-09-13T06:50:08.126Z,15.80
2022-09-13T06:52:36.552Z,15.90
2022-09-13T06:55:12.635Z,16.10
2022-09-13T06:57:43.069Z,16.20
2022-09-13T07:00:13.496Z,16.40
2022-09-13T07:02:41.945Z,16.50
2022-09-13T07:05:11.288Z,16.70
2022-09-13T07:07:39.629Z,16.80
2022-09-13T07:10:11.154Z,16.90
2022-09-13T07:12:42.115Z,17.00
2022-09-13T07:15:11.521Z,17.20
2022-09-13T07:17:39.921Z,17.50
2022-09-13T07:20:09.521Z,17.70
2022-09-13T07:22:38.289Z,17.80
2022-09-13T07:25:07.632Z,18.00
2022-09-13T07:27:37.937Z,18.20
2022-09-13T07:30:07.698Z,18.30
2022-09-13T07:32:36.601Z,18.50
2022-09-13T07:35:06.885Z,18.70
2022-09-13T07:37:36.134Z,18.80
2022-09-13T07:40:05.297Z,18.90
2022-09-13T07:42:34.108Z,19.00
2022-09-13T07:45:03.895Z,19.10
2022-09-13T07:47:35.036Z,19.30
2022-09-13T07:50:03.461Z,19.50
2022-09-13T07:52:34.976Z,19.70
2022-09-13T07:55:03.382Z,19.90
2022-09-13T07:57:32.501Z,20.00
2022-09-13T08:00:01.873Z,20.20
2022-09-13T08:02:41.977Z,20.30
2022-09-13T08:05:10.552Z,20.50
2022-09-13T08:07:39.350Z,20.60
2022-09-13T08:10:08.319Z,20.80
2022-09-13T08:12:37.329Z,20.90
2022-09-13T08:15:06.612Z,21.10
2022-09-13T08:17:35.488Z,21.20
2022-09-13T08:20:06.290Z,21.20
2022-09-13T08:22:35.547Z,21.30
2022-09-13T08:25:04.024Z,21.30
2022-09-13T08:27:32.700Z,21.30
2022-09-13T08:30:01.147Z,21.30
2022-09-13T08:32:31.747Z,21.20
2022-09-13T08:35:00.102Z,21.20
2022-09-13T08:37:30.788Z,21.20
2022-09-13T08:39:59.547Z,21.30
2022-09-13T08:42:48.035Z,21.40
2022-09-13T08:45:17.181Z,21.40
2022-09-13T08:47:49.771Z,21.40
2022-09-13T08:50:23.313Z,21.50
2022-09-13T08:53:08.242Z,21.50
2022-09-13T08:55:48.943Z,21.60
2022-09-13T08:58:50.542Z,21.80
2022-09-13T09:01:30.185Z,22.00
2022-09-13T09:04:07.497Z,22.10
2022-09-13T09:06:38.204Z,22.30
2022-09-13T09:09:12.644Z,22.50
2022-09-13T09:11:45.328Z,22.60
2022-09-13T09:14:21.617Z,22.60
2022-09-13T09:16:54.810Z,22.70
2022-09-13T09:19:31.692Z,22.80
2022-09-13T09:22:11.325Z,22.90
2022-09-13T09:24:45.569Z,23.10
2022-09-13T09:27:16.945Z,23.30
2022-09-13T09:29:46.759Z,23.40
2022-09-13T09:32:31.650Z,23.50
2022-09-13T09:35:17.841Z,23.60
2022-09-13T09:37:51.871Z,23.60
2022-09-13T09:40:21.939Z,23.80
2022-09-13T09:42:50.996Z,23.90
2022-09-13T09:45:27.133Z,24.00
2022-09-13T09:48:01.802Z,24.10
2022-09-13T09:50:34.555Z,24.10
2022-09-13T09:53:06.272Z,24.10
2022-09-13T09:55:44.808Z,24.20
2022-09-13T09:58:16.959Z,24.30
2022-09-13T10:00:55.135Z,24.40
2022-09-13T10:03:29.470Z,24.50
2022-09-13T10:06:07.048Z,24.60
2022-09-13T10:08:37.760Z,24.70
2022-09-13T10:11:08.683Z,24.80
2022-09-13T10:13:38.381Z,25.00
2022-09-13T10:16:24.186Z,25.00
2022-09-13T10:18:52.951Z,25.10
2022-09-13T10:21:28.373Z,25.10
2022-09-13T10:24:17.845Z,25.20
2022-09-13T10:26:48.201Z,25.30
2022-09-13T10:29:18.844Z,25.30
2022-09-13T10:31:53.721Z,25.40
2022-09-13T10:34:24.440Z,25.60
2022-09-13T10:36:57.390Z,25.60
2022-09-13T10:39:27.034Z,25.80
2022-09-13T10:42:01.035Z,26.10
2022-09-13T10:44:35.246Z,26.30
2022-09-13T10:47:06.251Z,26.50
2022-09-13T10:49:48.423Z,26.70
2022-09-13T10:52:32.625Z,26.90
2022-09-13T10:55:29.838Z,27.00
2022-09-13T11:01:17.863Z,27.20
2022-09-13T11:04:14.693Z,27.40
2022-09-13T11:06:50.025Z,27.50
2022-09-13T11:09:22.665Z,27.60
2022-09-13T11:11:58.492Z,27.50
2022-09-13T11:14:41.484Z,27.60
2022-09-13T11:17:21.924Z,27.60
2022-09-13T11:20:16.934Z,27.50
2022-09-13T11:23:29.754Z,27.50
2022-09-13T11:26:30.620Z,27.40
2022-09-13T11:29:06.158Z,27.20
2022-09-13T11:31:47.562Z,27.10
2022-09-13T11:34:33.588Z,27.00
2022-09-13T11:37:17.422Z,27.00
2022-09-13T11:39:56.682Z,27.00
2022-09-13T11:42:37.849Z,26.90
2022-09-13T11:45:27.323Z,26.80
2022-09-13T11:48:26.349Z,26.70
2022-09-13T11:51:04.619Z,26.50
2022-09-13T11:53:51.289Z,26.40
2022-09-13T11:56:25.611Z,26.40
2022-09-13T11:58:57.626Z,26.40
2022-09-13T12:01:30.567Z,26.50
2022-09-13T12:04:17.021Z,26.60
2022-09-13T12:06:54.065Z,26.60
2022-09-13T12:09:31.258Z,26.70
2022-09-13T12:12:06.410Z,26.90
2022-09-13T12:14:44.727Z,27.10
2022-09-13T12:17:25.754Z,27.40
2022-09-13T12:19:57.919Z,27.50
2022-09-13T12:22:31.707Z,27.70
2022-09-13T12:25:04.041Z,27.80
2022-09-13T12:27:40.319Z,28.00
2022-09-13T12:30:17.189Z,28.10
2022-09-13T12:32:47.663Z,28.10
2022-09-13T12:35:24.752Z,28.10
2022-09-13T12:38:21.128Z,28.30
2022-09-13T12:41:05.345Z,28.20
2022-09-13T12:43:53.728Z,28.20
2022-09-13T12:46:42.961Z,28.40
2022-09-13T12:49:46.344Z,28.70
2022-09-13T12:52:32.894Z,28.80
2022-09-13T12:55:46.998Z,29.00
2022-09-13T12:58:35.938Z,29.00
2022-09-13T13:01:11.919Z,29.20
2022-09-13T13:03:50.599Z,29.40
2022-09-13T13:06:29.563Z,29.60
2022-09-13T13:09:01.511Z,30.00
2022-09-13T13:11:45.484Z,30.60
2022-09-13T13:14:46.669Z,31.00
2022-09-13T13:17:37.613Z,31.50
2022-09-13T13:20:47.206Z,32.00
2022-09-13T13:23:31.379Z,32.10
2022-09-13T13:26:32.499Z,32.20
2022-09-13T13:29:15.680Z,32.60
2022-09-13T13:32:04.515Z,33.20
2022-09-13T13:34:42.369Z,33.90
2022-09-13T13:37:32.168Z,34.90
2022-09-13T13:40:20.325Z,35.70
2022-09-13T13:42:49.343Z,35.90
2022-09-13T13:45:28.218Z,36.30
2022-09-13T13:48:12.841Z,36.90
2022-09-13T13:51:15.411Z,37.70
2022-09-13T13:53:47.471Z,38.70
2022-09-13T13:56:23.969Z,39.30
2022-09-13T13:58:58.314Z,39.40
2022-09-13T14:01:31.220Z,39.70
2022-09-13T14:04:41.178Z,39.10
2022-09-13T14:07:20.376Z,38.10
2022-09-13T14:09:53.746Z,36.80
2022-09-13T14:12:42.685Z,35.50
2022-09-13T14:15:26.189Z,34.30
2022-09-13T14:18:30.797Z,33.20
2022-09-13T14:21:02.159Z,32.30
2022-09-13T14:23:30.985Z,31.60
2022-09-13T14:26:01.688Z,31.10
2022-09-13T14:28:33.056Z,30.80
2022-09-13T14:31:01.454Z,30.40
2022-09-13T14:33:35.278Z,30.10
2022-09-13T14:36:07.028Z,29.90
2022-09-13T14:38:37.481Z,29.60
2022-09-13T14:41:17.112Z,29.30
2022-09-13T14:43:47.154Z,29.00
2022-09-13T14:46:22.474Z,28.90
2022-09-13T14:48:55.493Z,28.80
2022-09-13T14:51:28.863Z,28.90
2022-09-13T14:54:00.927Z,28.90
2022-09-13T14:56:36.762Z,28.90
2022-09-13T14:59:09.159Z,28.90
2022-09-13T15:01:37.722Z,28.70
2022-09-13T15:04:08.190Z,28.60
2022-09-13T15:06:39.152Z,28.60
2022-09-13T15:09:28.273Z,28.50
2022-09-13T15:11:59.617Z,28.40
2022-09-13T15:14:31.484Z,28.30
2022-09-13T15:17:02.920Z,28.20
2022-09-13T15:19:39.714Z,28.10
2022-09-13T15:22:17.687Z,28.00
2022-09-13T15:24:49.167Z,28.00
2022-09-13T15:27:24.386Z,27.90
2022-09-13T15:29:55.211Z,27.80
2022-09-13T15:32:29.955Z,27.70
2022-09-13T15:35:01.773Z,27.70
2022-09-13T15:37:37.384Z,27.60
2022-09-13T15:40:19.581Z,27.50
2022-09-13T15:42:49.686Z,27.40
2022-09-13T15:45:18.677Z,27.30
2022-09-13T15:47:48.948Z,27.10
2022-09-13T15:50:26.975Z,27.00
2022-09-13T15:52:55.595Z,26.90
2022-09-13T15:55:24.420Z,26.80
2022-09-13T15:57:53.398Z,26.70
2022-09-13T16:00:28.923Z,26.70
2022-09-13T16:02:57.273Z,26.60
2022-09-13T16:05:27.186Z,26.60
2022-09-13T16:07:58.810Z,26.50
2022-09-13T16:10:29.422Z,26.40
2022-09-13T16:12:58.312Z,26.40
2022-09-13T16:15:28.245Z,26.40
2022-09-13T16:17:57.060Z,26.30
2022-09-13T16:20:27.710Z,26.30
2022-09-13T16:22:57.044Z,26.30
2022-09-13T16:25:28.977Z,26.30
2022-09-13T16:27:59.486Z,26.30
2022-09-13T16:30:30.561Z,26.30
2022-09-13T16:32:59.843Z,26.30
2022-09-13T16:35:31.552Z,26.20
2022-09-13T16:38:01.147Z,26.20
2022-09-13T16:40:30.180Z,26.20
2022-09-13T16:42:59.274Z,26.10
2022-09-13T16:45:27.569Z,26.10
2022-09-13T16:47:56.277Z,26.10
2022-09-13T16:50:25.381Z,26.10
2022-09-13T16:52:54.996Z,26.00
2022-09-13T16:55:24.241Z,25.90
2022-09-13T16:57:52.579Z,25.90
2022-09-13T17:00:21.438Z,25.80
2022-09-13T17:02:49.824Z,25.70
2022-09-13T17:05:19.072Z,25.70
2022-09-13T17:07:47.349Z,25.70
2022-09-13T17:10:17.523Z,25.70
2022-09-13T17:12:45.894Z,25.60
2022-09-13T17:15:15.589Z,25.60
2022-09-13T17:17:44.373Z,25.50
2022-09-13T17:20:14.780Z,25.50
2022-09-13T17:22:43.957Z,25.40
2022-09-13T17:25:16.338Z,25.40
2022-09-13T17:27:46.152Z,25.40
2022-09-13T17:30:15.240Z,25.40
2022-09-13T17:32:43.906Z,25.30
2022-09-13T17:35:12.697Z,25.30
2022-09-13T17:37:41.754Z,25.20
2022-09-13T17:40:10.595Z,25.20
2022-09-13T17:42:39.716Z,25.20
2022-09-13T17:45:10.274Z,25.10
2022-09-13T17:47:39.337Z,25.10
2022-09-13T17:50:08.973Z,25.10
2022-09-13T17:52:37.829Z,25.00
2022-09-13T17:55:07.108Z,25.00
2022-09-13T17:57:36.231Z,24.90
2022-09-13T18:00:10.786Z,24.90
2022-09-13T18:02:45.693Z,24.90
2022-09-13T18:05:14.204Z,24.90
2022-09-13T18:07:42.797Z,24.80
2022-09-13T18:10:32.308Z,24.70
2022-09-13T18:12:59.965Z,24.70
2022-09-13T18:15:28.316Z,24.60
2022-09-13T18:17:58.429Z,24.60
2022-09-13T18:20:26.802Z,24.60
2022-09-13T18:22:55.816Z,24.50
2022-09-13T18:25:24.102Z,24.40
2022-09-13T18:27:52.702Z,24.40
2022-09-13T18:30:21.044Z,24.30
2022-09-13T18:32:49.626Z,24.20
2022-09-13T18:35:19.596Z,24.10
2022-09-13T18:37:48.668Z,24.10
2022-09-13T18:40:17.541Z,24.10
2022-09-13T18:42:46.076Z,24.10
2022-09-13T18:45:14.949Z,24.10
2022-09-13T18:47:43.565Z,24.10
2022-09-13T18:50:15.749Z,24.10
2022-09-13T18:52:49.239Z,24.10
2022-09-13T18:55:17.547Z,24.10
2022-09-13T18:57:46.223Z,24.00
2022-09-13T19:00:15.012Z,24.00
2022-09-13T19:03:02.078Z,24.00
2022-09-13T19:05:39.973Z,23.90
2022-09-13T19:08:11.098Z,23.80
2022-09-13T19:10:39.721Z,23.80
2022-09-13T19:13:08.095Z,23.80
2022-09-13T19:15:36.735Z,23.70
2022-09-13T19:18:05.141Z,23.70
2022-09-13T19:20:34.007Z,23.70
2022-09-13T19:23:02.829Z,23.60
2022-09-13T19:25:35.476Z,23.60
2022-09-13T19:28:04.085Z,23.60
2022-09-13T19:30:34.764Z,23.60
2022-09-13T19:33:03.237Z,23.60
2022-09-13T19:35:31.832Z,23.60
2022-09-13T19:38:00.175Z,23.50
2022-09-13T19:40:28.503Z,23.50
2022-09-13T19:42:58.614Z,23.50
2022-09-13T19:45:26.928Z,23.40
2022-09-13T19:50:44.919Z,23.20
2022-09-13T19:53:13.185Z,23.20
2022-09-13T19:55:45.342Z,23.20
2022-09-13T19:58:16.032Z,23.20
2022-09-13T20:00:44.666Z,23.10
2022-09-13T20:03:13.627Z,23.10
2022-09-13T20:05:42.044Z,23.00
2022-09-13T20:08:10.496Z,23.00
2022-09-13T20:10:40.464Z,23.00
2022-09-13T20:13:09.031Z,22.90
2022-09-13T20:15:40.237Z,22.90
2022-09-13T20:18:13.177Z,22.90
2022-09-13T20:20:43.114Z,22.90
2022-09-13T20:23:11.592Z,22.90
2022-09-13T20:25:42.246Z,23.00
2022-09-13T20:28:10.703Z,22.90
2022-09-13T20:30:42.470Z,22.90
2022-09-13T20:33:11.527Z,23.00
2022-09-13T20:35:41.513Z,23.00
2022-09-13T20:38:09.872Z,22.90
2022-09-13T20:40:38.225Z,22.90
2022-09-13T20:43:06.477Z,22.80
2022-09-13T20:45:35.277Z,22.80
2022-09-13T20:48:05.877Z,22.80
2022-09-13T20:50:34.228Z,22.80
2022-09-13T20:53:04.009Z,22.80
2022-09-13T20:55:34.126Z,22.80
2022-09-13T20:58:02.848Z,22.80
2022-09-13T21:00:31.139Z,22.80
2022-09-13T21:03:00.019Z,22.90
2022-09-13T21:05:29.697Z,22.90
2022-09-13T21:08:27.443Z,22.90
2022-09-13T21:11:00.778Z,22.80
2022-09-13T21:13:29.562Z,22.80
2022-09-13T21:16:02.604Z,22.70
2022-09-13T21:18:31.804Z,22.80
2022-09-13T21:21:03.006Z,22.70
2022-09-13T21:23:34.022Z,22.70
2022-09-13T21:26:04.208Z,22.70
2022-09-13T21:28:32.585Z,22.80
2022-09-13T21:31:03.258Z,22.80
2022-09-13T21:33:31.541Z,22.80
2022-09-13T21:36:03.250Z,22.80
2022-09-13T21:38:33.298Z,22.80
2022-09-13T21:41:02.672Z,22.70
2022-09-13T21:43:32.111Z,22.70
2022-09-13T21:46:03.529Z,22.60
2022-09-13T21:48:33.245Z,22.60
2022-09-13T21:51:11.596Z,22.60
2022-09-13T21:53:40.396Z,22.50
2022-09-13T21:56:10.751Z,22.60
2022-09-13T21:58:39.822Z,22.60
2022-09-13T22:01:11.302Z,22.60
2022-09-13T22:03:43.050Z,22.50
2022-09-13T22:06:14.981Z,22.50
2022-09-13T22:08:46.668Z,22.50
2022-09-13T22:11:16.903Z,22.50
2022-09-13T22:13:47.120Z,22.50
2022-09-13T22:16:19.784Z,22.50
2022-09-13T22:18:49.654Z,22.50
2022-09-13T22:21:21.650Z,22.50
2022-09-13T22:23:50.560Z,22.50
2022-09-13T22:26:20.735Z,22.60
2022-09-13T22:28:49.254Z,22.50
2022-09-13T22:31:20.242Z,22.50
2022-09-13T22:33:49.261Z,22.40
2022-09-13T22:36:19.980Z,22.30
2022-09-13T22:38:54.178Z,22.30
2022-09-13T22:41:25.562Z,22.20
2022-09-13T22:43:54.377Z,22.20
2022-09-13T22:46:25.446Z,22.20
2022-09-13T22:48:54.929Z,22.20
2022-09-13T22:51:25.341Z,22.20
2022-09-13T22:53:55.449Z,22.20
2022-09-13T22:56:26.296Z,22.20
2022-09-13T22:58:56.796Z,22.20
2022-09-13T23:01:26.358Z,22.20
2022-09-13T23:03:55.758Z,22.20
2022-09-13T23:06:27.191Z,22.20
2022-09-13T23:08:59.882Z,22.20
2022-09-13T23:11:30.612Z,22.20
2022-09-13T23:14:01.690Z,22.20
2022-09-13T23:16:32.612Z,22.10
2022-09-13T23:19:01.616Z,22.10
2022-09-13T23:21:34.978Z,22.10
2022-09-13T23:24:05.264Z,22.10
2022-09-13T23:26:35.139Z,22.10
2022-09-13T23:29:05.243Z,22.00
2022-09-13T23:31:36.621Z,22.00
2022-09-13T23:34:06.988Z,21.80
2022-09-13T23:36:39.034Z,21.60
2022-09-13T23:39:09.207Z,21.50
2022-09-13T23:41:39.049Z,21.20
2022-09-13T23:44:07.504Z,20.90
2022-09-13T23:46:35.977Z,20.90
2022-09-13T23:49:05.211Z,20.90
2022-09-13T23:51:33.990Z,20.90
2022-09-13T23:54:05.311Z,21.00
2022-09-13T23:56:34.532Z,21.10
2022-09-13T23:59:04.667Z,21.10
